Date,TemperatureHighF,TemperatureAvgF,TemperatureLowF,DewpointHighF,DewpointAvgF,DewpointLowF,HumidityHigh,HumidityAvg,HumidityLow,PressureMaxIn,PressureMinIn,WindSpeedMaxMPH,WindSpeedAvgMPH,GustSpeedMaxMPH,PrecipitationSumIn
2013-3-1,45,36,30,37,32,28,97,85,66,0.00,40.00,10,6,14,0.00
2013-3-2,51,40,29,38,33,27,99,78,51,0.00,40.00,17,6,24,0.00
2013-3-3,48,42,32,39,32,11,92,67,36,0.00,40.00,17,10,26,0.16
2013-3-4,36,30,26,19,14,9,72,52,34,0.00,40.00,11,5,15,0.00
2013-3-5,47,34,22,27,18,11,79,52,33,0.00,40.00,16,7,21,0.00
2013-3-6,53,41,31,36,28,20,98,62,41,0.00,40.00,21,9,30,0.28
2013-3-7,43,36,30,31,27,22,85,70,48,0.00,40.00,8,4,11,0.00
2013-3-8,42,37,32,37,33,30,97,87,72,0.00,40.00,9,3,12,0.12
2013-3-9,45,36,26,31,24,17,100,68,33,0.00,40.00,18,6,25,0.00
2013-3-10,49,40,32,27,23,15,68,51,31,0.00,40.00,11,5,16,0.00
2013-3-11,52,46,42,38,28,15,70,50,31,0.00,40.00,14,7,20,0.00
2013-3-12,53,45,34,36,32,28,80,62,48,0.00,40.00,16,6,22,0.00
2013-3-13,62,51,37,37,35,32,84,56,34,0.00,40.00,16,10,22,0.00
2013-3-14,66,52,38,39,34,32,82,53,29,0.00,40.00,16,7,20,0.00
2013-3-15,62,54,46,35,30,25,59,41,26,0.00,40.00,10,5,19,0.00
2013-3-16,57,49,41,38,26,22,80,42,26,0.00,40.00,10,5,15,0.00
2013-3-17,43,38,32,38,19,7,91,50,24,0.00,40.00,18,11,32,0.00
2013-3-18,45,36,29,20,16,9,55,42,32,0.00,40.00,15,8,26,0.00
2013-3-19,52,41,28,19,15,8,59,36,18,0.00,40.00,9,4,15,0.00
2013-3-20,47,44,37,42,29,4,94,65,19,0.00,40.00,19,12,25,0.67
2013-3-21,44,35,31,40,24,15,94,65,43,0.00,40.00,18,10,28,0.12
2013-3-22,33,28,26,28,22,16,96,78,54,0.00,40.00,10,5,17,0.24
2013-3-23,35,27,19,24,19,13,91,75,41,0.00,40.00,10,4,13,0.00
2013-3-24,37,28,20,20,15,8,84,60,34,0.00,40.00,11,6,16,0.00
2013-3-25,47,34,20,22,16,11,70,50,28,0.00,40.00,12,7,17,0.00
2013-3-26,48,40,32,36,29,21,84,66,45,0.00,40.00,9,3,12,0.04
2013-3-27,59,45,35,38,33,27,89,66,32,0.00,40.00,8,4,11,0.00
2013-3-28,65,50,34,39,34,29,85,56,30,0.00,40.00,22,5,26,0.00
2013-3-29,65,54,43,38,34,27,73,48,24,0.00,40.00,10,5,19,0.00
2013-3-30,62,53,41,37,29,-100,70,44,26,0.00,40.00,10,5,15,0.00
2013-3-31,68,54,37,31,26,19,66,37,17,0.00,40.00,13,6,15,0.00